sensor_id;sensor_type;location;lat;lon;timestamp;temperature;humidity
5055;DHT22;13829;48.990;8.346;2023-02-12T00:01:25;6.40;99.90
5055;DHT22;13829;48.990;8.346;2023-02-12T00:03:53;6.50;99.90
5055;DHT22;13829;48.990;8.346;2023-02-12T00:06:20;6.50;99.90
5055;DHT22;13829;48.990;8.346;2023-02-12T00:08:49;6.40;99.90
5055;DHT22;13829;48.990;8.346;2023-02-12T00:11:18;6.50;99.90
5055;DHT22;13829;48.990;8.346;2023-02-12T00:13:46;6.40;99.90
5055;DHT22;13829;48.990;8.346;2023-02-12T00:16:17;6.50;99.90
5055;DHT22;13829;48.990;8.346;2023-02-12T00:18:47;6.50;99.90
5055;DHT22;13829;48.990;8.346;2023-02-12T00:21:16;6.50;99.90
5055;DHT22;13829;48.990;8.346;2023-02-12T00:23:43;6.50;99.90
5055;DHT22;13829;48.990;8.346;2023-02-12T00:26:12;6.50;99.90
5055;DHT22;13829;48.990;8.346;2023-02-12T00:28:41;6.50;99.90
5055;DHT22;13829;48.990;8.346;2023-02-12T00:31:10;6.50;99.90
5055;DHT22;13829;48.990;8.346;2023-02-12T00:33:38;6.50;99.90
5055;DHT22;13829;48.990;8.346;2023-02-12T00:36:07;6.40;99.90
5055;DHT22;13829;48.990;8.346;2023-02-12T00:38:36;6.50;99.90
5055;DHT22;13829;48.990;8.346;2023-02-12T00:41:03;6.40;99.90
5055;DHT22;13829;48.990;8.346;2023-02-12T00:43:30;6.40;99.90
5055;DHT22;13829;48.990;8.346;2023-02-12T00:45:57;6.40;99.90
5055;DHT22;13829;48.990;8.346;2023-02-12T00:48:24;6.40;99.90
5055;DHT22;13829;48.990;8.346;2023-02-12T00:50:51;6.40;99.90
5055;DHT22;13829;48.990;8.346;2023-02-12T00:53:20;6.40;99.90
5055;DHT22;13829;48.990;8.346;2023-02-12T00:55:47;6.40;99.90
5055;DHT22;13829;48.990;8.346;2023-02-12T00:58:13;6.40;99.90
5055;DHT22;13829;48.990;8.346;2023-02-12T01:00:41;6.50;99.90
5055;DHT22;13829;48.990;8.346;2023-02-12T01:03:08;6.50;99.90
5055;DHT22;13829;48.990;8.346;2023-02-12T01:05:35;6.50;99.90
5055;DHT22;13829;48.990;8.346;2023-02-12T01:08:03;6.50;99.90
5055;DHT22;13829;48.990;8.346;2023-02-12T01:10:32;6.50;99.90
5055;DHT22;13829;48.990;8.346;2023-02-12T01:12:59;6.50;99.90
5055;DHT22;13829;48.990;8.346;2023-02-12T01:15:26;6.50;99.90
5055;DHT22;13829;48.990;8.346;2023-02-12T01:17:53;6.50;99.90
5055;DHT22;13829;48.990;8.346;2023-02-12T01:20:22;6.50;99.90
5055;DHT22;13829;48.990;8.346;2023-02-12T01:22:50;6.60;99.90
5055;DHT22;13829;48.990;8.346;2023-02-12T01:25:17;6.60;99.90
5055;DHT22;13829;48.990;8.346;2023-02-12T01:27:46;6.60;99.90
5055;DHT22;13829;48.990;8.346;2023-02-12T01:30:14;6.50;99.90
5055;DHT22;13829;48.990;8.346;2023-02-12T01:32:42;6.50;99.90
5055;DHT22;13829;48.990;8.346;2023-02-12T01:35:09;6.60;99.90
5055;DHT22;13829;48.990;8.346;2023-02-12T01:37:36;6.60;99.90
5055;DHT22;13829;48.990;8.346;2023-02-12T01:40:05;6.70;99.90
5055;DHT22;13829;48.990;8.346;2023-02-12T01:42:34;6.70;99.90
5055;DHT22;13829;48.990;8.346;2023-02-12T01:48:22;6.70;99.90
5055;DHT22;13829;48.990;8.346;2023-02-12T01:50:51;6.60;99.90
5055;DHT22;13829;48.990;8.346;2023-02-12T01:53:21;6.60;99.90
5055;DHT22;13829;48.990;8.346;2023-02-12T01:55:54;6.60;99.90
5055;DHT22;13829;48.990;8.346;2023-02-12T01:58:25;6.60;99.90
5055;DHT22;13829;48.990;8.346;2023-02-12T02:01:02;6.60;99.90
5055;DHT22;13829;48.990;8.346;2023-02-12T02:03:33;6.50;99.90
5055;DHT22;13829;48.990;8.346;2023-02-12T02:06:07;6.60;99.90
5055;DHT22;13829;48.990;8.346;2023-02-12T02:08:38;6.60;99.90
5055;DHT22;13829;48.990;8.346;2023-02-12T02:11:06;6.50;99.90
5055;DHT22;13829;48.990;8.346;2023-02-12T02:13:48;6.50;99.90
5055;DHT22;13829;48.990;8.346;2023-02-12T02:16:34;6.50;99.90
5055;DHT22;13829;48.990;8.346;2023-02-12T02:19:08;6.50;99.90
5055;DHT22;13829;48.990;8.346;2023-02-12T02:25:35;6.50;99.90
5055;DHT22;13829;48.990;8.346;2023-02-12T02:28:48;6.50;99.90
5055;DHT22;13829;48.990;8.346;2023-02-12T02:31:29;6.50;99.90
5055;DHT22;13829;48.990;8.346;2023-02-12T02:34:09;6.50;99.90
5055;DHT22;13829;48.990;8.346;2023-02-12T02:36:44;6.50;99.90
5055;DHT22;13829;48.990;8.346;2023-02-12T02:39:18;6.50;99.90
5055;DHT22;13829;48.990;8.346;2023-02-12T02:41:56;6.50;99.90
5055;DHT22;13829;48.990;8.346;2023-02-12T02:44:30;6.50;99.90
5055;DHT22;13829;48.990;8.346;2023-02-12T02:47:07;6.50;99.90
5055;DHT22;13829;48.990;8.346;2023-02-12T02:49:40;6.50;99.90
5055;DHT22;13829;48.990;8.346;2023-02-12T02:52:16;6.50;99.90
5055;DHT22;13829;48.990;8.346;2023-02-12T02:54:51;6.60;99.90
5055;DHT22;13829;48.990;8.346;2023-02-12T02:57:25;6.50;99.90
5055;DHT22;13829;48.990;8.346;2023-02-12T02:59:59;6.50;99.90
5055;DHT22;13829;48.990;8.346;2023-02-12T03:02:35;6.50;99.90
5055;DHT22;13829;48.990;8.346;2023-02-12T03:05:07;6.60;99.90
5055;DHT22;13829;48.990;8.346;2023-02-12T03:07:43;6.60;99.90
5055;DHT22;13829;48.990;8.346;2023-02-12T03:10:17;6.60;99.90
5055;DHT22;13829;48.990;8.346;2023-02-12T03:12:50;6.70;99.90
5055;DHT22;13829;48.990;8.346;2023-02-12T03:15:26;6.70;99.90
5055;DHT22;13829;48.990;8.346;2023-02-12T03:18:04;6.70;99.90
5055;DHT22;13829;48.990;8.346;2023-02-12T03:20:41;6.70;99.90
5055;DHT22;13829;48.990;8.346;2023-02-12T03:23:16;6.70;99.90
5055;DHT22;13829;48.990;8.346;2023-02-12T03:25:53;6.70;99.90
5055;DHT22;13829;48.990;8.346;2023-02-12T03:28:27;6.70;99.90
5055;DHT22;13829;48.990;8.346;2023-02-12T03:31:02;6.70;99.90
5055;DHT22;13829;48.990;8.346;2023-02-12T03:33:46;6.70;99.90
5055;DHT22;13829;48.990;8.346;2023-02-12T03:36:30;6.80;99.90
5055;DHT22;13829;48.990;8.346;2023-02-12T03:39:10;6.80;99.90
5055;DHT22;13829;48.990;8.346;2023-02-12T03:41:48;6.80;99.90
5055;DHT22;13829;48.990;8.346;2023-02-12T03:44:32;6.80;99.90
5055;DHT22;13829;48.990;8.346;2023-02-12T03:47:18;6.80;99.90
5055;DHT22;13829;48.990;8.346;2023-02-12T03:49:57;6.80;99.90
5055;DHT22;13829;48.990;8.346;2023-02-12T03:52:28;6.70;99.90
5055;DHT22;13829;48.990;8.346;2023-02-12T03:54:56;6.70;99.90
5055;DHT22;13829;48.990;8.346;2023-02-12T03:57:26;6.70;99.90
5055;DHT22;13829;48.990;8.346;2023-02-12T03:59:57;6.70;99.90
5055;DHT22;13829;48.990;8.346;2023-02-12T04:02:24;6.70;99.90
5055;DHT22;13829;48.990;8.346;2023-02-12T04:04:53;6.70;99.90
5055;DHT22;13829;48.990;8.346;2023-02-12T04:07:20;6.70;99.90
5055;DHT22;13829;48.990;8.346;2023-02-12T04:09:47;6.70;99.90
5055;DHT22;13829;48.990;8.346;2023-02-12T04:12:26;6.70;99.90
5055;DHT22;13829;48.990;8.346;2023-02-12T04:15:10;6.70;99.90
5055;DHT22;13829;48.990;8.346;2023-02-12T04:17:50;6.70;99.90
5055;DHT22;13829;48.990;8.346;2023-02-12T04:20:33;6.80;99.90
5055;DHT22;13829;48.990;8.346;2023-02-12T04:23:15;6.70;99.90
5055;DHT22;13829;48.990;8.346;2023-02-12T04:25:57;6.80;99.90
5055;DHT22;13829;48.990;8.346;2023-02-12T04:28:36;6.80;99.90
5055;DHT22;13829;48.990;8.346;2023-02-12T04:31:14;6.80;99.90
5055;DHT22;13829;48.990;8.346;2023-02-12T04:33:59;6.80;99.90
5055;DHT22;13829;48.990;8.346;2023-02-12T04:36:40;6.70;99.90
5055;DHT22;13829;48.990;8.346;2023-02-12T04:39:16;6.70;99.90
5055;DHT22;13829;48.990;8.346;2023-02-12T04:41:48;6.80;99.90
5055;DHT22;13829;48.990;8.346;2023-02-12T04:44:17;6.80;99.90
5055;DHT22;13829;48.990;8.346;2023-02-12T04:46:47;6.80;99.90
5055;DHT22;13829;48.990;8.346;2023-02-12T04:49:17;6.80;99.90
5055;DHT22;13829;48.990;8.346;2023-02-12T04:51:47;6.80;99.90
5055;DHT22;13829;48.990;8.346;2023-02-12T04:54:15;6.70;99.90
5055;DHT22;13829;48.990;8.346;2023-02-12T04:56:44;6.70;99.90
5055;DHT22;13829;48.990;8.346;2023-02-12T04:59:11;6.70;99.90
5055;DHT22;13829;48.990;8.346;2023-02-12T05:01:39;6.70;99.90
5055;DHT22;13829;48.990;8.346;2023-02-12T05:04:09;6.70;99.90
5055;DHT22;13829;48.990;8.346;2023-02-12T05:06:39;6.70;99.90
5055;DHT22;13829;48.990;8.346;2023-02-12T05:09:09;6.80;99.90
5055;DHT22;13829;48.990;8.346;2023-02-12T05:11:40;6.80;99.90
5055;DHT22;13829;48.990;8.346;2023-02-12T05:14:07;6.80;99.90
5055;DHT22;13829;48.990;8.346;2023-02-12T05:16:34;6.70;99.90
5055;DHT22;13829;48.990;8.346;2023-02-12T05:19:01;6.70;99.90
5055;DHT22;13829;48.990;8.346;2023-02-12T05:21:28;6.70;99.90
5055;DHT22;13829;48.990;8.346;2023-02-12T05:23:55;6.70;99.90
5055;DHT22;13829;48.990;8.346;2023-02-12T05:26:23;6.80;99.90
5055;DHT22;13829;48.990;8.346;2023-02-12T05:28:50;6.80;99.90
5055;DHT22;13829;48.990;8.346;2023-02-12T05:31:18;6.80;99.90
5055;DHT22;13829;48.990;8.346;2023-02-12T05:33:47;6.80;99.90
5055;DHT22;13829;48.990;8.346;2023-02-12T05:36:17;6.80;99.90
5055;DHT22;13829;48.990;8.346;2023-02-12T05:38:46;6.80;99.90
5055;DHT22;13829;48.990;8.346;2023-02-12T05:41:15;6.80;99.90
5055;DHT22;13829;48.990;8.346;2023-02-12T05:43:45;6.80;99.90
5055;DHT22;13829;48.990;8.346;2023-02-12T05:46:14;6.80;99.90
5055;DHT22;13829;48.990;8.346;2023-02-12T05:48:41;6.80;99.90
5055;DHT22;13829;48.990;8.346;2023-02-12T05:51:09;6.80;99.90
5055;DHT22;13829;48.990;8.346;2023-02-12T05:53:38;6.80;99.90
5055;DHT22;13829;48.990;8.346;2023-02-12T05:56:08;6.90;99.90
5055;DHT22;13829;48.990;8.346;2023-02-12T05:58:36;6.90;99.90
5055;DHT22;13829;48.990;8.346;2023-02-12T06:01:10;6.90;99.90
5055;DHT22;13829;48.990;8.346;2023-02-12T06:03:39;6.90;99.90
5055;DHT22;13829;48.990;8.346;2023-02-12T06:06:06;6.90;99.90
5055;DHT22;13829;48.990;8.346;2023-02-12T06:08:34;7.00;99.90
5055;DHT22;13829;48.990;8.346;2023-02-12T06:11:01;7.10;99.90
5055;DHT22;13829;48.990;8.346;2023-02-12T06:13:30;7.00;99.90
5055;DHT22;13829;48.990;8.346;2023-02-12T06:15:59;6.90;99.90
5055;DHT22;13829;48.990;8.346;2023-02-12T06:18:27;6.90;99.90
5055;DHT22;13829;48.990;8.346;2023-02-12T06:20:55;6.90;99.90
5055;DHT22;13829;48.990;8.346;2023-02-12T06:23:22;6.90;99.90
5055;DHT22;13829;48.990;8.346;2023-02-12T06:25:54;6.90;99.90
5055;DHT22;13829;48.990;8.346;2023-02-12T06:28:22;6.90;99.90
5055;DHT22;13829;48.990;8.346;2023-02-12T06:30:49;6.80;99.90
5055;DHT22;13829;48.990;8.346;2023-02-12T06:33:16;6.80;99.90
5055;DHT22;13829;48.990;8.346;2023-02-12T06:35:44;6.80;99.90
5055;DHT22;13829;48.990;8.346;2023-02-12T06:38:11;6.80;99.90
5055;DHT22;13829;48.990;8.346;2023-02-12T06:40:38;6.70;99.90
5055;DHT22;13829;48.990;8.346;2023-02-12T06:43:05;6.80;99.90
5055;DHT22;13829;48.990;8.346;2023-02-12T06:45:33;6.80;99.90
5055;DHT22;13829;48.990;8.346;2023-02-12T06:48:00;6.80;99.90
5055;DHT22;13829;48.990;8.346;2023-02-12T06:50:27;6.80;99.90
5055;DHT22;13829;48.990;8.346;2023-02-12T06:52:57;6.80;99.90
5055;DHT22;13829;48.990;8.346;2023-02-12T06:55:24;6.80;99.90
5055;DHT22;13829;48.990;8.346;2023-02-12T06:57:51;6.80;99.90
5055;DHT22;13829;48.990;8.346;2023-02-12T07:00:19;6.70;99.90
5055;DHT22;13829;48.990;8.346;2023-02-12T07:02:51;6.80;99.90
5055;DHT22;13829;48.990;8.346;2023-02-12T07:05:20;6.70;99.90
5055;DHT22;13829;48.990;8.346;2023-02-12T07:07:47;6.70;99.90
5055;DHT22;13829;48.990;8.346;2023-02-12T07:10:16;6.70;99.90
5055;DHT22;13829;48.990;8.346;2023-02-12T07:12:43;6.80;99.90
5055;DHT22;13829;48.990;8.346;2023-02-12T07:15:11;6.80;99.90
5055;DHT22;13829;48.990;8.346;2023-02-12T07:17:38;6.80;99.90
5055;DHT22;13829;48.990;8.346;2023-02-12T07:20:06;6.80;99.90
5055;DHT22;13829;48.990;8.346;2023-02-12T07:22:35;6.90;99.90
5055;DHT22;13829;48.990;8.346;2023-02-12T07:25:02;7.00;99.90
5055;DHT22;13829;48.990;8.346;2023-02-12T07:27:31;7.00;99.90
5055;DHT22;13829;48.990;8.346;2023-02-12T07:30:01;7.00;99.90
5055;DHT22;13829;48.990;8.346;2023-02-12T07:32:30;7.00;99.90
5055;DHT22;13829;48.990;8.346;2023-02-12T07:34:58;7.00;99.90
5055;DHT22;13829;48.990;8.346;2023-02-12T07:37:25;7.10;99.90
5055;DHT22;13829;48.990;8.346;2023-02-12T07:39:52;7.10;99.90
5055;DHT22;13829;48.990;8.346;2023-02-12T07:42:19;7.10;99.90
5055;DHT22;13829;48.990;8.346;2023-02-12T07:44:47;7.20;99.90
5055;DHT22;13829;48.990;8.346;2023-02-12T07:47:14;7.30;99.90
5055;DHT22;13829;48.990;8.346;2023-02-12T07:49:42;7.40;99.90
5055;DHT22;13829;48.990;8.346;2023-02-12T07:52:09;7.60;99.90
5055;DHT22;13829;48.990;8.346;2023-02-12T07:54:36;7.70;99.90
5055;DHT22;13829;48.990;8.346;2023-02-12T07:57:03;7.80;99.90
5055;DHT22;13829;48.990;8.346;2023-02-12T07:59:30;8.10;99.90
5055;DHT22;13829;48.990;8.346;2023-02-12T08:01:58;8.90;99.90
5055;DHT22;13829;48.990;8.346;2023-02-12T08:04:26;10.20;99.90
5055;DHT22;13829;48.990;8.346;2023-02-12T08:06:54;11.40;99.90
5055;DHT22;13829;48.990;8.346;2023-02-12T08:09:23;12.30;99.50
5055;DHT22;13829;48.990;8.346;2023-02-12T08:11:52;12.90;97.90
5055;DHT22;13829;48.990;8.346;2023-02-12T08:14:20;12.90;97.30
5055;DHT22;13829;48.990;8.346;2023-02-12T08:16:49;12.40;97.60
5055;DHT22;13829;48.990;8.346;2023-02-12T08:19:18;11.90;98.30
5055;DHT22;13829;48.990;8.346;2023-02-12T08:21:48;11.60;98.40
5055;DHT22;13829;48.990;8.346;2023-02-12T08:24:16;11.00;99.60
5055;DHT22;13829;48.990;8.346;2023-02-12T08:26:43;10.50;99.90
5055;DHT22;13829;48.990;8.346;2023-02-12T08:29:12;10.00;99.90
5055;DHT22;13829;48.990;8.346;2023-02-12T08:31:41;9.80;99.90
5055;DHT22;13829;48.990;8.346;2023-02-12T08:34:16;9.60;99.90
5055;DHT22;13829;48.990;8.346;2023-02-12T08:36:46;9.50;99.90
5055;DHT22;13829;48.990;8.346;2023-02-12T08:39:14;9.30;99.90
5055;DHT22;13829;48.990;8.346;2023-02-12T08:41:42;9.10;99.90
5055;DHT22;13829;48.990;8.346;2023-02-12T08:44:10;8.90;99.90
5055;DHT22;13829;48.990;8.346;2023-02-12T08:46:41;8.90;99.90
5055;DHT22;13829;48.990;8.346;2023-02-12T08:49:11;9.00;99.90
5055;DHT22;13829;48.990;8.346;2023-02-12T08:51:43;9.10;99.90
5055;DHT22;13829;48.990;8.346;2023-02-12T08:54:15;9.00;99.90
5055;DHT22;13829;48.990;8.346;2023-02-12T08:56:43;9.00;99.90
5055;DHT22;13829;48.990;8.346;2023-02-12T08:59:12;9.00;99.90
5055;DHT22;13829;48.990;8.346;2023-02-12T09:01:41;9.00;99.90
5055;DHT22;13829;48.990;8.346;2023-02-12T09:04:13;9.00;99.90
5055;DHT22;13829;48.990;8.346;2023-02-12T09:06:44;8.90;99.90
5055;DHT22;13829;48.990;8.346;2023-02-12T09:09:12;8.80;99.90
5055;DHT22;13829;48.990;8.346;2023-02-12T09:11:40;8.90;99.90
5055;DHT22;13829;48.990;8.346;2023-02-12T09:14:12;8.80;99.90
5055;DHT22;13829;48.990;8.346;2023-02-12T09:16:41;8.90;99.90
5055;DHT22;13829;48.990;8.346;2023-02-12T09:19:11;9.00;99.90
5055;DHT22;13829;48.990;8.346;2023-02-12T09:21:39;9.00;99.90
5055;DHT22;13829;48.990;8.346;2023-02-12T09:24:08;9.20;99.90
5055;DHT22;13829;48.990;8.346;2023-02-12T09:26:36;9.10;99.90
5055;DHT22;13829;48.990;8.346;2023-02-12T09:29:04;9.10;99.90
5055;DHT22;13829;48.990;8.346;2023-02-12T09:31:31;9.20;99.90
5055;DHT22;13829;48.990;8.346;2023-02-12T09:34:01;9.40;99.90
5055;DHT22;13829;48.990;8.346;2023-02-12T09:36:30;9.50;99.90
5055;DHT22;13829;48.990;8.346;2023-02-12T09:38:57;9.50;99.90
5055;DHT22;13829;48.990;8.346;2023-02-12T09:41:51;9.50;99.90
5055;DHT22;13829;48.990;8.346;2023-02-12T09:44:36;9.60;99.90
5055;DHT22;13829;48.990;8.346;2023-02-12T09:47:15;9.60;99.90
5055;DHT22;13829;48.990;8.346;2023-02-12T09:50:02;9.60;99.90
5055;DHT22;13829;48.990;8.346;2023-02-12T09:52:39;9.70;99.90
5055;DHT22;13829;48.990;8.346;2023-02-12T09:55:10;9.70;99.90
5055;DHT22;13829;48.990;8.346;2023-02-12T09:57:42;9.80;99.90
5055;DHT22;13829;48.990;8.346;2023-02-12T10:00:14;9.90;99.90
5055;DHT22;13829;48.990;8.346;2023-02-12T10:02:45;9.80;99.90
5055;DHT22;13829;48.990;8.346;2023-02-12T10:05:16;10.00;99.90
5055;DHT22;13829;48.990;8.346;2023-02-12T10:08:07;10.00;99.90
5055;DHT22;13829;48.990;8.346;2023-02-12T10:10:49;9.90;99.90
5055;DHT22;13829;48.990;8.346;2023-02-12T10:13:30;9.80;99.90
5055;DHT22;13829;48.990;8.346;2023-02-12T10:16:11;9.90;99.90
5055;DHT22;13829;48.990;8.346;2023-02-12T10:18:58;10.00;99.90
5055;DHT22;13829;48.990;8.346;2023-02-12T10:21:45;9.90;99.90
5055;DHT22;13829;48.990;8.346;2023-02-12T10:24:44;9.80;99.90
5055;DHT22;13829;48.990;8.346;2023-02-12T10:27:28;9.80;99.90
5055;DHT22;13829;48.990;8.346;2023-02-12T10:30:13;9.90;99.90
5055;DHT22;13829;48.990;8.346;2023-02-12T10:32:46;10.00;99.90
5055;DHT22;13829;48.990;8.346;2023-02-12T10:35:17;10.00;99.90
5055;DHT22;13829;48.990;8.346;2023-02-12T10:37:51;10.00;99.90
5055;DHT22;13829;48.990;8.346;2023-02-12T10:40:25;10.00;99.90
5055;DHT22;13829;48.990;8.346;2023-02-12T10:42:55;10.00;99.90
5055;DHT22;13829;48.990;8.346;2023-02-12T10:45:29;10.00;99.90
5055;DHT22;13829;48.990;8.346;2023-02-12T10:48:04;10.10;99.90
5055;DHT22;13829;48.990;8.346;2023-02-12T10:50:44;10.30;99.90
5055;DHT22;13829;48.990;8.346;2023-02-12T10:53:20;10.50;99.90
5055;DHT22;13829;48.990;8.346;2023-02-12T10:56:05;10.30;99.90
5055;DHT22;13829;48.990;8.346;2023-02-12T10:58:41;10.30;99.90
5055;DHT22;13829;48.990;8.346;2023-02-12T11:01:21;10.40;99.90
5055;DHT22;13829;48.990;8.346;2023-02-12T11:03:53;10.60;99.90
5055;DHT22;13829;48.990;8.346;2023-02-12T11:06:26;10.80;99.90
5055;DHT22;13829;48.990;8.346;2023-02-12T11:08:55;10.80;99.90
5055;DHT22;13829;48.990;8.346;2023-02-12T11:11:26;10.80;99.90
5055;DHT22;13829;48.990;8.346;2023-02-12T11:13:57;11.00;99.90
5055;DHT22;13829;48.990;8.346;2023-02-12T11:16:39;11.00;99.90
5055;DHT22;13829;48.990;8.346;2023-02-12T11:19:19;10.80;99.90
5055;DHT22;13829;48.990;8.346;2023-02-12T11:21:48;10.70;99.90
5055;DHT22;13829;48.990;8.346;2023-02-12T11:24:29;10.60;99.90
5055;DHT22;13829;48.990;8.346;2023-02-12T11:27:21;10.50;99.90
5055;DHT22;13829;48.990;8.346;2023-02-12T11:30:11;10.80;99.90
5055;DHT22;13829;48.990;8.346;2023-02-12T11:32:42;11.00;99.90
5055;DHT22;13829;48.990;8.346;2023-02-12T11:35:13;11.00;99.90
5055;DHT22;13829;48.990;8.346;2023-02-12T11:37:45;10.90;99.90
5055;DHT22;13829;48.990;8.346;2023-02-12T11:40:17;11.00;99.90
5055;DHT22;13829;48.990;8.346;2023-02-12T11:42:49;10.80;99.90
5055;DHT22;13829;48.990;8.346;2023-02-12T11:45:20;10.90;99.90
5055;DHT22;13829;48.990;8.346;2023-02-12T11:47:53;11.10;99.90
5055;DHT22;13829;48.990;8.346;2023-02-12T11:50:25;11.30;99.90
5055;DHT22;13829;48.990;8.346;2023-02-12T11:52:56;11.40;99.90
5055;DHT22;13829;48.990;8.346;2023-02-12T11:55:28;11.40;99.90
5055;DHT22;13829;48.990;8.346;2023-02-12T11:58:03;11.50;99.90
5055;DHT22;13829;48.990;8.346;2023-02-12T12:00:45;11.40;99.90
5055;DHT22;13829;48.990;8.346;2023-02-12T12:03:22;11.30;99.90
5055;DHT22;13829;48.990;8.346;2023-02-12T12:06:00;11.40;99.90
5055;DHT22;13829;48.990;8.346;2023-02-12T12:08:37;11.50;99.90
5055;DHT22;13829;48.990;8.346;2023-02-12T12:11:11;11.30;99.90
5055;DHT22;13829;48.990;8.346;2023-02-12T12:13:46;11.10;99.90
5055;DHT22;13829;48.990;8.346;2023-02-12T12:16:19;11.40;99.90
5055;DHT22;13829;48.990;8.346;2023-02-12T12:19:15;11.50;99.90
5055;DHT22;13829;48.990;8.346;2023-02-12T12:22:15;11.50;99.90
5055;DHT22;13829;48.990;8.346;2023-02-12T12:24:54;11.30;99.90
5055;DHT22;13829;48.990;8.346;2023-02-12T12:27:32;11.40;99.90
5055;DHT22;13829;48.990;8.346;2023-02-12T12:30:28;11.30;99.90
5055;DHT22;13829;48.990;8.346;2023-02-12T12:33:05;11.40;99.90
5055;DHT22;13829;48.990;8.346;2023-02-12T12:35:48;11.30;99.90
5055;DHT22;13829;48.990;8.346;2023-02-12T12:38:36;11.00;99.90
5055;DHT22;13829;48.990;8.346;2023-02-12T12:41:19;10.90;99.90
5055;DHT22;13829;48.990;8.346;2023-02-12T12:44:01;10.80;99.90
5055;DHT22;13829;48.990;8.346;2023-02-12T12:46:48;10.80;99.90
5055;DHT22;13829;48.990;8.346;2023-02-12T12:49:37;10.60;99.90
5055;DHT22;13829;48.990;8.346;2023-02-12T12:56:00;10.40;99.90
5055;DHT22;13829;48.990;8.346;2023-02-12T12:58:53;10.60;99.90
5055;DHT22;13829;48.990;8.346;2023-02-12T13:01:49;10.50;99.90
5055;DHT22;13829;48.990;8.346;2023-02-12T13:05:01;10.50;99.90
5055;DHT22;13829;48.990;8.346;2023-02-12T13:08:02;10.70;99.90
5055;DHT22;13829;48.990;8.346;2023-02-12T13:10:39;10.60;99.90
5055;DHT22;13829;48.990;8.346;2023-02-12T13:13:21;10.40;99.90
5055;DHT22;13829;48.990;8.346;2023-02-12T13:16:00;10.50;99.90
5055;DHT22;13829;48.990;8.346;2023-02-12T13:18:45;10.60;99.90
5055;DHT22;13829;48.990;8.346;2023-02-12T13:21:37;10.70;99.90
5055;DHT22;13829;48.990;8.346;2023-02-12T13:24:22;10.60;99.90
5055;DHT22;13829;48.990;8.346;2023-02-12T13:26:57;10.70;99.90
5055;DHT22;13829;48.990;8.346;2023-02-12T13:29:30;10.80;99.90
5055;DHT22;13829;48.990;8.346;2023-02-12T13:32:04;10.70;99.90
5055;DHT22;13829;48.990;8.346;2023-02-12T13:34:38;10.80;99.90
5055;DHT22;13829;48.990;8.346;2023-02-12T13:37:13;10.80;99.90
5055;DHT22;13829;48.990;8.346;2023-02-12T13:39:47;10.80;99.90
5055;DHT22;13829;48.990;8.346;2023-02-12T13:42:25;10.70;99.90
5055;DHT22;13829;48.990;8.346;2023-02-12T13:45:15;10.60;99.90
5055;DHT22;13829;48.990;8.346;2023-02-12T13:48:03;10.50;99.90
5055;DHT22;13829;48.990;8.346;2023-02-12T13:50:44;10.50;99.90
5055;DHT22;13829;48.990;8.346;2023-02-12T13:53:21;10.60;99.90
5055;DHT22;13829;48.990;8.346;2023-02-12T13:56:05;10.50;99.90
5055;DHT22;13829;48.990;8.346;2023-02-12T13:58:49;10.50;99.90
5055;DHT22;13829;48.990;8.346;2023-02-12T14:01:40;10.60;99.90
5055;DHT22;13829;48.990;8.346;2023-02-12T14:04:27;10.60;99.90
5055;DHT22;13829;48.990;8.346;2023-02-12T14:06:58;10.70;99.90
5055;DHT22;13829;48.990;8.346;2023-02-12T14:09:36;10.70;99.90
5055;DHT22;13829;48.990;8.346;2023-02-12T14:12:09;10.70;99.90
5055;DHT22;13829;48.990;8.346;2023-02-12T14:14:41;10.70;99.90
5055;DHT22;13829;48.990;8.346;2023-02-12T14:17:40;10.70;99.90
5055;DHT22;13829;48.990;8.346;2023-02-12T14:20:26;10.70;99.90
5055;DHT22;13829;48.990;8.346;2023-02-12T14:25:58;10.80;99.90
5055;DHT22;13829;48.990;8.346;2023-02-12T14:28:46;10.90;99.90
5055;DHT22;13829;48.990;8.346;2023-02-12T14:31:33;10.90;99.90
5055;DHT22;13829;48.990;8.346;2023-02-12T14:37:35;10.80;99.90
5055;DHT22;13829;48.990;8.346;2023-02-12T14:40:37;10.80;99.90
5055;DHT22;13829;48.990;8.346;2023-02-12T14:43:25;10.70;99.90
5055;DHT22;13829;48.990;8.346;2023-02-12T14:49:22;10.70;99.90
5055;DHT22;13829;48.990;8.346;2023-02-12T14:51:56;10.80;99.90
5055;DHT22;13829;48.990;8.346;2023-02-12T14:54:29;10.90;99.90
5055;DHT22;13829;48.990;8.346;2023-02-12T14:57:04;11.00;99.90
5055;DHT22;13829;48.990;8.346;2023-02-12T14:59:40;11.00;99.90
5055;DHT22;13829;48.990;8.346;2023-02-12T15:02:19;10.90;99.90
5055;DHT22;13829;48.990;8.346;2023-02-12T15:04:51;10.90;99.90
5055;DHT22;13829;48.990;8.346;2023-02-12T15:07:27;11.00;99.90
5055;DHT22;13829;48.990;8.346;2023-02-12T15:09:59;10.90;99.90
5055;DHT22;13829;48.990;8.346;2023-02-12T15:12:37;10.90;99.90
5055;DHT22;13829;48.990;8.346;2023-02-12T15:15:14;10.90;99.90
5055;DHT22;13829;48.990;8.346;2023-02-12T15:17:55;10.90;99.90
5055;DHT22;13829;48.990;8.346;2023-02-12T15:20:29;10.80;99.90
5055;DHT22;13829;48.990;8.346;2023-02-12T15:23:00;10.80;99.90
5055;DHT22;13829;48.990;8.346;2023-02-12T15:25:31;10.80;99.90
5055;DHT22;13829;48.990;8.346;2023-02-12T15:28:00;10.70;99.90
5055;DHT22;13829;48.990;8.346;2023-02-12T15:30:32;10.70;99.90
5055;DHT22;13829;48.990;8.346;2023-02-12T15:33:05;10.80;99.90
5055;DHT22;13829;48.990;8.346;2023-02-12T15:35:35;10.80;99.90
5055;DHT22;13829;48.990;8.346;2023-02-12T15:38:06;10.80;99.90
5055;DHT22;13829;48.990;8.346;2023-02-12T15:40:34;10.70;99.90
5055;DHT22;13829;48.990;8.346;2023-02-12T15:43:02;10.70;99.90
5055;DHT22;13829;48.990;8.346;2023-02-12T15:45:32;10.70;99.90
5055;DHT22;13829;48.990;8.346;2023-02-12T15:48:09;10.70;99.90
5055;DHT22;13829;48.990;8.346;2023-02-12T15:50:47;10.70;99.90
5055;DHT22;13829;48.990;8.346;2023-02-12T15:53:19;10.60;99.90
5055;DHT22;13829;48.990;8.346;2023-02-12T15:55:49;10.60;99.90
5055;DHT22;13829;48.990;8.346;2023-02-12T15:58:20;10.70;99.90
5055;DHT22;13829;48.990;8.346;2023-02-12T16:00:50;10.60;99.90
5055;DHT22;13829;48.990;8.346;2023-02-12T16:03:22;10.50;99.90
5055;DHT22;13829;48.990;8.346;2023-02-12T16:05:51;10.60;99.90
5055;DHT22;13829;48.990;8.346;2023-02-12T16:08:23;10.50;99.90
5055;DHT22;13829;48.990;8.346;2023-02-12T16:10:52;10.50;99.90
5055;DHT22;13829;48.990;8.346;2023-02-12T16:13:28;10.40;99.90
5055;DHT22;13829;48.990;8.346;2023-02-12T16:16:13;10.40;99.90
5055;DHT22;13829;48.990;8.346;2023-02-12T16:18:46;10.40;99.90
5055;DHT22;13829;48.990;8.346;2023-02-12T16:21:28;10.40;99.90
5055;DHT22;13829;48.990;8.346;2023-02-12T16:23:56;10.30;99.90
5055;DHT22;13829;48.990;8.346;2023-02-12T16:26:24;10.20;99.90
5055;DHT22;13829;48.990;8.346;2023-02-12T16:28:54;10.20;99.90
5055;DHT22;13829;48.990;8.346;2023-02-12T16:31:25;10.10;99.90
5055;DHT22;13829;48.990;8.346;2023-02-12T16:33:55;10.10;99.90
5055;DHT22;13829;48.990;8.346;2023-02-12T16:36:29;10.00;99.90
5055;DHT22;13829;48.990;8.346;2023-02-12T16:39:02;9.90;99.90
5055;DHT22;13829;48.990;8.346;2023-02-12T16:41:33;10.10;99.90
5055;DHT22;13829;48.990;8.346;2023-02-12T16:44:26;9.90;99.90
5055;DHT22;13829;48.990;8.346;2023-02-12T16:46:58;9.80;99.90
5055;DHT22;13829;48.990;8.346;2023-02-12T16:49:28;9.70;99.90
5055;DHT22;13829;48.990;8.346;2023-02-12T16:52:20;9.70;99.90
5055;DHT22;13829;48.990;8.346;2023-02-12T16:54:56;9.60;99.90
5055;DHT22;13829;48.990;8.346;2023-02-12T16:57:23;9.50;99.90